sensor_id;sensor_type;location;lat;lon;timestamp;P1;durP1;ratioP1;P2;durP2;ratioP2
1569;SDS011;778;50.120;8.698;2023-06-22T00:01:25;8.27;;;7.57;;
1569;SDS011;778;50.120;8.698;2023-06-22T00:03:55;9.33;;;8.53;;
1569;SDS011;778;50.120;8.698;2023-06-22T00:06:23;9.37;;;8.53;;
1569;SDS011;778;50.120;8.698;2023-06-22T00:08:52;9.90;;;9.10;;
1569;SDS011;778;50.120;8.698;2023-06-22T00:11:20;8.77;;;7.97;;
1569;SDS011;778;50.120;8.698;2023-06-22T00:13:49;10.60;;;9.70;;
1569;SDS011;778;50.120;8.698;2023-06-22T00:16:18;9.60;;;8.77;;
1569;SDS011;778;50.120;8.698;2023-06-22T00:18:46;9.57;;;8.80;;
1569;SDS011;778;50.120;8.698;2023-06-22T00:21:16;10.27;;;9.37;;
1569;SDS011;778;50.120;8.698;2023-06-22T00:23:46;8.57;;;7.97;;
1569;SDS011;778;50.120;8.698;2023-06-22T00:26:15;9.70;;;8.70;;
1569;SDS011;778;50.120;8.698;2023-06-22T00:28:43;9.20;;;8.40;;
1569;SDS011;778;50.120;8.698;2023-06-22T00:31:12;9.40;;;8.43;;
1569;SDS011;778;50.120;8.698;2023-06-22T00:33:40;9.23;;;8.37;;
1569;SDS011;778;50.120;8.698;2023-06-22T00:36:09;8.60;;;7.90;;
1569;SDS011;778;50.120;8.698;2023-06-22T00:38:41;10.20;;;9.30;;
1569;SDS011;778;50.120;8.698;2023-06-22T00:41:09;8.77;;;8.03;;
1569;SDS011;778;50.120;8.698;2023-06-22T00:43:37;9.10;;;8.40;;
1569;SDS011;778;50.120;8.698;2023-06-22T00:46:08;8.87;;;8.17;;
1569;SDS011;778;50.120;8.698;2023-06-22T00:48:37;8.17;;;7.43;;
1569;SDS011;778;50.120;8.698;2023-06-22T00:51:06;8.73;;;8.03;;
1569;SDS011;778;50.120;8.698;2023-06-22T00:53:35;9.37;;;8.30;;
1569;SDS011;778;50.120;8.698;2023-06-22T00:56:05;8.57;;;7.97;;
1569;SDS011;778;50.120;8.698;2023-06-22T00:58:35;8.93;;;8.20;;
1569;SDS011;778;50.120;8.698;2023-06-22T01:01:08;9.00;;;8.23;;
1569;SDS011;778;50.120;8.698;2023-06-22T01:03:36;8.27;;;7.67;;
1569;SDS011;778;50.120;8.698;2023-06-22T01:06:07;7.80;;;7.13;;
1569;SDS011;778;50.120;8.698;2023-06-22T01:08:39;8.57;;;7.97;;
1569;SDS011;778;50.120;8.698;2023-06-22T01:11:18;8.20;;;7.60;;
1569;SDS011;778;50.120;8.698;2023-06-22T01:13:54;8.90;;;8.20;;
1569;SDS011;778;50.120;8.698;2023-06-22T01:16:29;9.00;;;8.37;;
1569;SDS011;778;50.120;8.698;2023-06-22T01:19:00;8.33;;;7.77;;
1569;SDS011;778;50.120;8.698;2023-06-22T01:21:40;11.40;;;9.43;;
1569;SDS011;778;50.120;8.698;2023-06-22T01:24:11;12.73;;;9.13;;
1569;SDS011;778;50.120;8.698;2023-06-22T01:26:54;9.33;;;8.53;;
1569;SDS011;778;50.120;8.698;2023-06-22T01:29:36;9.07;;;8.27;;
1569;SDS011;778;50.120;8.698;2023-06-22T01:32:06;9.83;;;8.93;;
1569;SDS011;778;50.120;8.698;2023-06-22T01:34:35;9.67;;;8.87;;
1569;SDS011;778;50.120;8.698;2023-06-22T01:37:06;9.27;;;8.57;;
1569;SDS011;778;50.120;8.698;2023-06-22T01:39:35;9.33;;;8.53;;
1569;SDS011;778;50.120;8.698;2023-06-22T01:42:04;10.27;;;9.47;;
1569;SDS011;778;50.120;8.698;2023-06-22T01:44:33;10.10;;;9.40;;
1569;SDS011;778;50.120;8.698;2023-06-22T01:47:04;10.07;;;9.30;;
1569;SDS011;778;50.120;8.698;2023-06-22T01:49:35;10.50;;;9.60;;
1569;SDS011;778;50.120;8.698;2023-06-22T01:52:04;10.20;;;9.50;;
1569;SDS011;778;50.120;8.698;2023-06-22T01:54:33;11.43;;;10.43;;
1569;SDS011;778;50.120;8.698;2023-06-22T01:57:02;11.80;;;10.80;;
1569;SDS011;778;50.120;8.698;2023-06-22T01:59:32;10.67;;;9.87;;
1569;SDS011;778;50.120;8.698;2023-06-22T02:02:06;11.53;;;10.43;;
1569;SDS011;778;50.120;8.698;2023-06-22T02:04:37;12.83;;;11.80;;
1569;SDS011;778;50.120;8.698;2023-06-22T02:07:12;10.90;;;9.90;;
1569;SDS011;778;50.120;8.698;2023-06-22T02:09:43;11.23;;;10.30;;
1569;SDS011;778;50.120;8.698;2023-06-22T02:12:13;11.17;;;10.30;;
1569;SDS011;778;50.120;8.698;2023-06-22T02:14:47;11.17;;;10.27;;
1569;SDS011;778;50.120;8.698;2023-06-22T02:17:17;10.70;;;9.73;;
1569;SDS011;778;50.120;8.698;2023-06-22T02:19:46;11.40;;;10.60;;
1569;SDS011;778;50.120;8.698;2023-06-22T02:22:15;12.43;;;11.33;;
1569;SDS011;778;50.120;8.698;2023-06-22T02:24:43;11.93;;;10.93;;
1569;SDS011;778;50.120;8.698;2023-06-22T02:27:12;11.80;;;10.90;;
1569;SDS011;778;50.120;8.698;2023-06-22T02:29:41;9.93;;;9.23;;
1569;SDS011;778;50.120;8.698;2023-06-22T02:32:11;11.37;;;10.27;;
1569;SDS011;778;50.120;8.698;2023-06-22T02:34:41;10.90;;;10.17;;
1569;SDS011;778;50.120;8.698;2023-06-22T02:37:15;11.20;;;10.30;;
1569;SDS011;778;50.120;8.698;2023-06-22T02:39:44;11.13;;;10.23;;
1569;SDS011;778;50.120;8.698;2023-06-22T02:42:12;12.73;;;11.73;;
1569;SDS011;778;50.120;8.698;2023-06-22T02:44:41;11.37;;;10.57;;
1569;SDS011;778;50.120;8.698;2023-06-22T02:47:13;10.60;;;9.83;;
1569;SDS011;778;50.120;8.698;2023-06-22T02:49:42;11.20;;;10.40;;
1569;SDS011;778;50.120;8.698;2023-06-22T02:52:11;12.00;;;10.40;;
1569;SDS011;778;50.120;8.698;2023-06-22T02:54:40;12.07;;;11.07;;
1569;SDS011;778;50.120;8.698;2023-06-22T02:57:12;11.27;;;10.40;;
1569;SDS011;778;50.120;8.698;2023-06-22T02:59:42;11.20;;;10.30;;
1569;SDS011;778;50.120;8.698;2023-06-22T03:02:13;12.13;;;11.13;;
1569;SDS011;778;50.120;8.698;2023-06-22T03:04:42;11.67;;;10.63;;
1569;SDS011;778;50.120;8.698;2023-06-22T03:07:12;10.90;;;9.97;;
1569;SDS011;778;50.120;8.698;2023-06-22T03:09:41;11.83;;;10.90;;
1569;SDS011;778;50.120;8.698;2023-06-22T03:12:10;12.27;;;11.23;;
1569;SDS011;778;50.120;8.698;2023-06-22T03:14:47;11.30;;;10.40;;
1569;SDS011;778;50.120;8.698;2023-06-22T03:17:17;12.23;;;11.17;;
1569;SDS011;778;50.120;8.698;2023-06-22T03:19:46;11.50;;;10.70;;
1569;SDS011;778;50.120;8.698;2023-06-22T03:22:15;11.50;;;10.50;;
1569;SDS011;778;50.120;8.698;2023-06-22T03:24:43;11.57;;;10.67;;
1569;SDS011;778;50.120;8.698;2023-06-22T03:27:12;13.70;;;12.50;;
1569;SDS011;778;50.120;8.698;2023-06-22T03:29:41;12.30;;;11.20;;
1569;SDS011;778;50.120;8.698;2023-06-22T03:32:11;12.40;;;11.37;;
1569;SDS011;778;50.120;8.698;2023-06-22T03:34:41;16.70;;;11.07;;
1569;SDS011;778;50.120;8.698;2023-06-22T03:37:13;12.10;;;11.03;;
1569;SDS011;778;50.120;8.698;2023-06-22T03:39:42;12.90;;;11.70;;
1569;SDS011;778;50.120;8.698;2023-06-22T03:42:12;11.93;;;10.83;;
1569;SDS011;778;50.120;8.698;2023-06-22T03:44:41;12.43;;;11.43;;
1569;SDS011;778;50.120;8.698;2023-06-22T03:47:10;12.40;;;11.37;;
1569;SDS011;778;50.120;8.698;2023-06-22T03:49:40;12.20;;;11.30;;
1569;SDS011;778;50.120;8.698;2023-06-22T03:52:09;12.13;;;11.13;;
1569;SDS011;778;50.120;8.698;2023-06-22T03:54:38;11.57;;;10.67;;
1569;SDS011;778;50.120;8.698;2023-06-22T03:57:07;12.80;;;11.90;;
1569;SDS011;778;50.120;8.698;2023-06-22T03:59:37;12.60;;;11.50;;
1569;SDS011;778;50.120;8.698;2023-06-22T04:02:06;12.03;;;11.10;;
1569;SDS011;778;50.120;8.698;2023-06-22T04:04:35;13.13;;;11.93;;
1569;SDS011;778;50.120;8.698;2023-06-22T04:07:07;12.77;;;11.73;;
1569;SDS011;778;50.120;8.698;2023-06-22T04:09:36;11.90;;;11.00;;
1569;SDS011;778;50.120;8.698;2023-06-22T04:12:05;13.70;;;12.40;;
1569;SDS011;778;50.120;8.698;2023-06-22T04:14:34;12.80;;;11.63;;
1569;SDS011;778;50.120;8.698;2023-06-22T04:17:03;13.47;;;12.40;;
1569;SDS011;778;50.120;8.698;2023-06-22T04:19:32;13.03;;;12.00;;
1569;SDS011;778;50.120;8.698;2023-06-22T04:22:01;12.30;;;11.20;;
1569;SDS011;778;50.120;8.698;2023-06-22T04:24:33;13.67;;;12.47;;
1569;SDS011;778;50.120;8.698;2023-06-22T04:27:02;12.80;;;11.80;;
1569;SDS011;778;50.120;8.698;2023-06-22T04:29:31;12.67;;;11.77;;
1569;SDS011;778;50.120;8.698;2023-06-22T04:32:00;13.57;;;12.57;;
1569;SDS011;778;50.120;8.698;2023-06-22T04:34:31;14.37;;;13.27;;
1569;SDS011;778;50.120;8.698;2023-06-22T04:37:00;13.17;;;12.17;;
1569;SDS011;778;50.120;8.698;2023-06-22T04:39:29;14.43;;;13.20;;
1569;SDS011;778;50.120;8.698;2023-06-22T04:41:59;13.10;;;11.80;;
1569;SDS011;778;50.120;8.698;2023-06-22T04:44:28;13.20;;;12.20;;
1569;SDS011;778;50.120;8.698;2023-06-22T04:46:58;13.33;;;12.23;;
1569;SDS011;778;50.120;8.698;2023-06-22T04:49:30;13.70;;;12.50;;
1569;SDS011;778;50.120;8.698;2023-06-22T04:52:01;15.07;;;12.43;;
1569;SDS011;778;50.120;8.698;2023-06-22T04:54:31;13.27;;;12.07;;
1569;SDS011;778;50.120;8.698;2023-06-22T04:57:01;13.30;;;12.30;;
1569;SDS011;778;50.120;8.698;2023-06-22T04:59:36;13.60;;;12.33;;
1569;SDS011;778;50.120;8.698;2023-06-22T05:02:08;13.03;;;11.93;;
1569;SDS011;778;50.120;8.698;2023-06-22T05:04:37;14.20;;;13.00;;
1569;SDS011;778;50.120;8.698;2023-06-22T05:07:06;13.73;;;12.53;;
1569;SDS011;778;50.120;8.698;2023-06-22T05:09:36;14.00;;;12.90;;
1569;SDS011;778;50.120;8.698;2023-06-22T05:12:07;14.83;;;13.63;;
1569;SDS011;778;50.120;8.698;2023-06-22T05:14:37;13.43;;;12.27;;
1569;SDS011;778;50.120;8.698;2023-06-22T05:17:05;14.57;;;13.47;;
1569;SDS011;778;50.120;8.698;2023-06-22T05:19:41;14.60;;;13.20;;
1569;SDS011;778;50.120;8.698;2023-06-22T05:22:11;14.13;;;13.03;;
1569;SDS011;778;50.120;8.698;2023-06-22T05:24:40;13.73;;;12.63;;
1569;SDS011;778;50.120;8.698;2023-06-22T05:27:10;12.90;;;11.90;;
1569;SDS011;778;50.120;8.698;2023-06-22T05:29:39;13.53;;;12.43;;
1569;SDS011;778;50.120;8.698;2023-06-22T05:32:09;14.47;;;13.10;;
1569;SDS011;778;50.120;8.698;2023-06-22T05:34:38;16.20;;;11.60;;
1569;SDS011;778;50.120;8.698;2023-06-22T05:37:07;14.00;;;12.77;;
1569;SDS011;778;50.120;8.698;2023-06-22T05:39:37;13.20;;;11.87;;
1569;SDS011;778;50.120;8.698;2023-06-22T05:42:06;14.20;;;13.10;;
1569;SDS011;778;50.120;8.698;2023-06-22T05:44:37;13.83;;;12.57;;
1569;SDS011;778;50.120;8.698;2023-06-22T05:47:07;13.37;;;12.27;;
1569;SDS011;778;50.120;8.698;2023-06-22T05:49:36;12.90;;;11.03;;
1569;SDS011;778;50.120;8.698;2023-06-22T05:52:05;12.83;;;11.53;;
1569;SDS011;778;50.120;8.698;2023-06-22T05:54:34;13.10;;;12.00;;
1569;SDS011;778;50.120;8.698;2023-06-22T05:57:03;12.77;;;11.67;;
1569;SDS011;778;50.120;8.698;2023-06-22T05:59:32;12.33;;;11.27;;
1569;SDS011;778;50.120;8.698;2023-06-22T06:02:02;12.47;;;11.40;;
1569;SDS011;778;50.120;8.698;2023-06-22T06:04:32;11.90;;;10.53;;
1569;SDS011;778;50.120;8.698;2023-06-22T06:07:01;12.07;;;11.13;;
1569;SDS011;778;50.120;8.698;2023-06-22T06:09:30;12.27;;;11.17;;
1569;SDS011;778;50.120;8.698;2023-06-22T06:11:59;11.50;;;10.40;;
1569;SDS011;778;50.120;8.698;2023-06-22T06:14:29;12.43;;;11.37;;
1569;SDS011;778;50.120;8.698;2023-06-22T06:16:58;11.13;;;10.23;;
1569;SDS011;778;50.120;8.698;2023-06-22T06:19:28;13.07;;;11.90;;
1569;SDS011;778;50.120;8.698;2023-06-22T06:21:57;12.00;;;11.10;;
1569;SDS011;778;50.120;8.698;2023-06-22T06:24:26;11.30;;;10.20;;
1569;SDS011;778;50.120;8.698;2023-06-22T06:26:55;12.17;;;11.17;;
1569;SDS011;778;50.120;8.698;2023-06-22T06:29:24;10.83;;;9.83;;
1569;SDS011;778;50.120;8.698;2023-06-22T06:31:53;13.57;;;11.20;;
1569;SDS011;778;50.120;8.698;2023-06-22T06:34:21;11.93;;;10.40;;
1569;SDS011;778;50.120;8.698;2023-06-22T06:36:52;11.30;;;10.40;;
1569;SDS011;778;50.120;8.698;2023-06-22T06:39:21;11.53;;;10.50;;
1569;SDS011;778;50.120;8.698;2023-06-22T06:41:49;12.13;;;11.10;;
1569;SDS011;778;50.120;8.698;2023-06-22T06:44:18;11.17;;;10.07;;
1569;SDS011;778;50.120;8.698;2023-06-22T06:46:47;11.10;;;10.10;;
1569;SDS011;778;50.120;8.698;2023-06-22T06:49:16;11.23;;;10.13;;
1569;SDS011;778;50.120;8.698;2023-06-22T06:51:45;10.83;;;9.97;;
1569;SDS011;778;50.120;8.698;2023-06-22T06:54:15;11.60;;;10.70;;
1569;SDS011;778;50.120;8.698;2023-06-22T06:56:47;11.67;;;10.63;;
1569;SDS011;778;50.120;8.698;2023-06-22T06:59:16;10.90;;;10.07;;
1569;SDS011;778;50.120;8.698;2023-06-22T07:01:45;11.63;;;10.63;;
1569;SDS011;778;50.120;8.698;2023-06-22T07:04:15;11.87;;;10.77;;
1569;SDS011;778;50.120;8.698;2023-06-22T07:06:44;12.87;;;11.53;;
1569;SDS011;778;50.120;8.698;2023-06-22T07:09:12;11.33;;;10.40;;
1569;SDS011;778;50.120;8.698;2023-06-22T07:11:42;11.00;;;10.10;;
1569;SDS011;778;50.120;8.698;2023-06-22T07:14:11;11.47;;;10.37;;
1569;SDS011;778;50.120;8.698;2023-06-22T07:16:40;12.13;;;10.93;;
1569;SDS011;778;50.120;8.698;2023-06-22T07:19:10;11.93;;;11.03;;
1569;SDS011;778;50.120;8.698;2023-06-22T07:21:39;12.40;;;11.43;;
1569;SDS011;778;50.120;8.698;2023-06-22T07:24:08;12.60;;;11.50;;
1569;SDS011;778;50.120;8.698;2023-06-22T07:26:37;11.20;;;10.30;;
1569;SDS011;778;50.120;8.698;2023-06-22T07:29:07;13.00;;;11.70;;
1569;SDS011;778;50.120;8.698;2023-06-22T07:31:36;13.57;;;12.47;;
1569;SDS011;778;50.120;8.698;2023-06-22T07:34:06;12.13;;;11.10;;
1569;SDS011;778;50.120;8.698;2023-06-22T07:36:35;11.50;;;10.60;;
1569;SDS011;778;50.120;8.698;2023-06-22T07:39:04;12.60;;;11.50;;
1569;SDS011;778;50.120;8.698;2023-06-22T07:41:33;12.93;;;11.83;;
1569;SDS011;778;50.120;8.698;2023-06-22T07:44:02;13.13;;;12.03;;
1569;SDS011;778;50.120;8.698;2023-06-22T07:46:32;13.17;;;11.77;;
1569;SDS011;778;50.120;8.698;2023-06-22T07:49:01;11.40;;;10.30;;
1569;SDS011;778;50.120;8.698;2023-06-22T07:51:30;17.50;;;12.40;;
1569;SDS011;778;50.120;8.698;2023-06-22T07:53:59;13.20;;;12.00;;
1569;SDS011;778;50.120;8.698;2023-06-22T07:56:28;13.40;;;12.20;;
1569;SDS011;778;50.120;8.698;2023-06-22T07:58:56;14.07;;;12.37;;
1569;SDS011;778;50.120;8.698;2023-06-22T08:01:27;17.17;;;13.47;;
1569;SDS011;778;50.120;8.698;2023-06-22T08:03:57;13.00;;;12.00;;
1569;SDS011;778;50.120;8.698;2023-06-22T08:06:26;13.00;;;11.93;;
1569;SDS011;778;50.120;8.698;2023-06-22T08:08:57;11.80;;;10.90;;
1569;SDS011;778;50.120;8.698;2023-06-22T08:11:26;13.80;;;12.80;;
1569;SDS011;778;50.120;8.698;2023-06-22T08:13:54;13.37;;;12.13;;
1569;SDS011;778;50.120;8.698;2023-06-22T08:16:25;13.97;;;12.57;;
1569;SDS011;778;50.120;8.698;2023-06-22T08:18:54;14.00;;;12.90;;
1569;SDS011;778;50.120;8.698;2023-06-22T08:21:24;13.03;;;11.93;;
1569;SDS011;778;50.120;8.698;2023-06-22T08:23:53;14.07;;;12.97;;
1569;SDS011;778;50.120;8.698;2023-06-22T08:26:21;12.37;;;11.50;;
1569;SDS011;778;50.120;8.698;2023-06-22T08:28:50;12.97;;;11.77;;
1569;SDS011;778;50.120;8.698;2023-06-22T08:31:19;13.13;;;11.93;;
1569;SDS011;778;50.120;8.698;2023-06-22T08:33:48;13.83;;;11.70;;
1569;SDS011;778;50.120;8.698;2023-06-22T08:36:17;13.00;;;12.00;;
1569;SDS011;778;50.120;8.698;2023-06-22T08:38:48;11.70;;;10.70;;
1569;SDS011;778;50.120;8.698;2023-06-22T08:41:17;13.50;;;12.20;;
1569;SDS011;778;50.120;8.698;2023-06-22T08:43:46;12.10;;;11.20;;
1569;SDS011;778;50.120;8.698;2023-06-22T08:46:15;13.17;;;12.17;;
1569;SDS011;778;50.120;8.698;2023-06-22T08:48:48;13.43;;;11.73;;
1569;SDS011;778;50.120;8.698;2023-06-22T08:51:17;13.40;;;12.20;;
1569;SDS011;778;50.120;8.698;2023-06-22T08:53:45;12.87;;;11.50;;
1569;SDS011;778;50.120;8.698;2023-06-22T08:56:16;11.57;;;10.57;;
1569;SDS011;778;50.120;8.698;2023-06-22T08:58:45;11.80;;;11.00;;
1569;SDS011;778;50.120;8.698;2023-06-22T09:01:14;12.57;;;11.77;;
1569;SDS011;778;50.120;8.698;2023-06-22T09:03:43;12.43;;;11.37;;
1569;SDS011;778;50.120;8.698;2023-06-22T09:06:20;14.03;;;12.83;;
1569;SDS011;778;50.120;8.698;2023-06-22T09:08:51;13.20;;;12.10;;
1569;SDS011;778;50.120;8.698;2023-06-22T09:11:19;13.30;;;12.27;;
1569;SDS011;778;50.120;8.698;2023-06-22T09:13:48;12.83;;;11.93;;
1569;SDS011;778;50.120;8.698;2023-06-22T09:16:18;13.10;;;12.10;;
1569;SDS011;778;50.120;8.698;2023-06-22T09:18:47;13.17;;;12.17;;
1569;SDS011;778;50.120;8.698;2023-06-22T09:21:16;12.67;;;11.57;;
1569;SDS011;778;50.120;8.698;2023-06-22T09:23:45;12.57;;;11.40;;
1569;SDS011;778;50.120;8.698;2023-06-22T09:26:19;13.33;;;12.10;;
1569;SDS011;778;50.120;8.698;2023-06-22T09:28:49;11.23;;;10.30;;
1569;SDS011;778;50.120;8.698;2023-06-22T09:31:18;12.50;;;11.60;;
1569;SDS011;778;50.120;8.698;2023-06-22T09:33:52;13.80;;;11.40;;
1569;SDS011;778;50.120;8.698;2023-06-22T09:36:21;12.90;;;11.90;;
1569;SDS011;778;50.120;8.698;2023-06-22T09:38:50;12.60;;;11.40;;
1569;SDS011;778;50.120;8.698;2023-06-22T09:41:23;12.83;;;11.80;;
1569;SDS011;778;50.120;8.698;2023-06-22T09:43:52;12.53;;;11.33;;
1569;SDS011;778;50.120;8.698;2023-06-22T09:46:22;12.17;;;11.37;;
1569;SDS011;778;50.120;8.698;2023-06-22T09:48:51;12.30;;;11.23;;
1569;SDS011;778;50.120;8.698;2023-06-22T09:51:20;12.50;;;11.70;;
1569;SDS011;778;50.120;8.698;2023-06-22T09:53:50;11.30;;;10.40;;
1569;SDS011;778;50.120;8.698;2023-06-22T09:56:20;12.00;;;11.10;;
1569;SDS011;778;50.120;8.698;2023-06-22T09:58:50;10.93;;;10.13;;
1569;SDS011;778;50.120;8.698;2023-06-22T10:01:21;10.73;;;9.47;;
1569;SDS011;778;50.120;8.698;2023-06-22T10:03:52;9.93;;;9.03;;
1569;SDS011;778;50.120;8.698;2023-06-22T10:06:22;8.63;;;7.90;;
1569;SDS011;778;50.120;8.698;2023-06-22T10:08:52;10.27;;;9.43;;
1569;SDS011;778;50.120;8.698;2023-06-22T10:11:21;9.67;;;9.00;;
1569;SDS011;778;50.120;8.698;2023-06-22T10:13:56;9.53;;;8.83;;
1569;SDS011;778;50.120;8.698;2023-06-22T10:16:30;10.70;;;9.60;;
1569;SDS011;778;50.120;8.698;2023-06-22T10:18:59;9.93;;;9.13;;
1569;SDS011;778;50.120;8.698;2023-06-22T10:21:28;10.00;;;9.23;;
1569;SDS011;778;50.120;8.698;2023-06-22T10:23:56;10.33;;;9.43;;
1569;SDS011;778;50.120;8.698;2023-06-22T10:26:28;10.20;;;9.40;;
1569;SDS011;778;50.120;8.698;2023-06-22T10:28:58;10.57;;;9.63;;
1569;SDS011;778;50.120;8.698;2023-06-22T10:31:42;9.33;;;8.70;;
1569;SDS011;778;50.120;8.698;2023-06-22T10:34:11;9.43;;;8.63;;
1569;SDS011;778;50.120;8.698;2023-06-22T10:36:39;9.77;;;8.97;;
1569;SDS011;778;50.120;8.698;2023-06-22T10:39:08;10.63;;;9.67;;
1569;SDS011;778;50.120;8.698;2023-06-22T10:41:37;9.60;;;8.77;;
1569;SDS011;778;50.120;8.698;2023-06-22T10:44:07;8.67;;;7.87;;
1569;SDS011;778;50.120;8.698;2023-06-22T10:46:36;9.70;;;8.90;;
1569;SDS011;778;50.120;8.698;2023-06-22T10:49:05;9.43;;;8.63;;
1569;SDS011;778;50.120;8.698;2023-06-22T10:51:33;8.57;;;7.70;;
1569;SDS011;778;50.120;8.698;2023-06-22T10:54:02;15.03;;;8.43;;
1569;SDS011;778;50.120;8.698;2023-06-22T10:56:31;8.70;;;8.10;;
1569;SDS011;778;50.120;8.698;2023-06-22T10:59:00;9.17;;;8.37;;
1569;SDS011;778;50.120;8.698;2023-06-22T11:01:31;10.30;;;9.40;;
1569;SDS011;778;50.120;8.698;2023-06-22T11:04:02;9.10;;;8.40;;
1569;SDS011;778;50.120;8.698;2023-06-22T11:06:31;9.37;;;8.43;;
1569;SDS011;778;50.120;8.698;2023-06-22T11:09:00;9.80;;;9.13;;
1569;SDS011;778;50.120;8.698;2023-06-22T11:11:49;9.93;;;9.23;;
1569;SDS011;778;50.120;8.698;2023-06-22T11:14:20;8.70;;;8.10;;
1569;SDS011;778;50.120;8.698;2023-06-22T11:16:50;9.03;;;8.20;;
1569;SDS011;778;50.120;8.698;2023-06-22T11:19:19;10.07;;;9.17;;
1569;SDS011;778;50.120;8.698;2023-06-22T11:21:48;9.30;;;8.40;;
1569;SDS011;778;50.120;8.698;2023-06-22T11:24:17;10.40;;;9.03;;
1569;SDS011;778;50.120;8.698;2023-06-22T11:26:46;9.27;;;8.47;;
1569;SDS011;778;50.120;8.698;2023-06-22T11:29:14;10.83;;;9.83;;
1569;SDS011;778;50.120;8.698;2023-06-22T11:32:03;9.23;;;8.37;;
1569;SDS011;778;50.120;8.698;2023-06-22T11:34:33;11.83;;;9.33;;
1569;SDS011;778;50.120;8.698;2023-06-22T11:37:02;11.57;;;9.53;;
1569;SDS011;778;50.120;8.698;2023-06-22T11:39:31;9.43;;;8.80;;
1569;SDS011;778;50.120;8.698;2023-06-22T11:42:13;9.87;;;8.97;;
1569;SDS011;778;50.120;8.698;2023-06-22T11:44:42;10.43;;;9.50;;
1569;SDS011;778;50.120;8.698;2023-06-22T11:47:12;10.63;;;9.80;;
1569;SDS011;778;50.120;8.698;2023-06-22T11:49:41;10.27;;;9.10;;
1569;SDS011;778;50.120;8.698;2023-06-22T11:52:10;10.30;;;9.30;;
1569;SDS011;778;50.120;8.698;2023-06-22T11:54:39;10.13;;;9.23;;
1569;SDS011;778;50.120;8.698;2023-06-22T11:57:07;10.80;;;9.80;;
1569;SDS011;778;50.120;8.698;2023-06-22T11:59:36;11.13;;;10.13;;
1569;SDS011;778;50.120;8.698;2023-06-22T12:02:05;10.20;;;9.30;;
1569;SDS011;778;50.120;8.698;2023-06-22T12:04:37;10.43;;;9.50;;
1569;SDS011;778;50.120;8.698;2023-06-22T12:07:06;10.37;;;9.50;;
1569;SDS011;778;50.120;8.698;2023-06-22T12:09:34;11.50;;;10.30;;
1569;SDS011;778;50.120;8.698;2023-06-22T12:12:03;10.43;;;9.53;;
1569;SDS011;778;50.120;8.698;2023-06-22T12:14:33;11.10;;;9.87;;
1569;SDS011;778;50.120;8.698;2023-06-22T12:17:02;10.83;;;9.90;;
1569;SDS011;778;50.120;8.698;2023-06-22T12:19:31;10.70;;;9.90;;
1569;SDS011;778;50.120;8.698;2023-06-22T12:22:01;10.70;;;9.80;;
1569;SDS011;778;50.120;8.698;2023-06-22T12:24:30;12.73;;;11.33;;
1569;SDS011;778;50.120;8.698;2023-06-22T12:26:58;10.27;;;9.30;;
1569;SDS011;778;50.120;8.698;2023-06-22T12:29:29;12.93;;;10.60;;
1569;SDS011;778;50.120;8.698;2023-06-22T12:31:58;10.83;;;9.87;;
1569;SDS011;778;50.120;8.698;2023-06-22T12:34:28;10.83;;;9.87;;
1569;SDS011;778;50.120;8.698;2023-06-22T12:36:57;11.73;;;10.57;;
1569;SDS011;778;50.120;8.698;2023-06-22T12:39:27;10.60;;;9.60;;
1569;SDS011;778;50.120;8.698;2023-06-22T12:41:56;11.17;;;10.07;;
1569;SDS011;778;50.120;8.698;2023-06-22T12:44:25;10.77;;;9.97;;
1569;SDS011;778;50.120;8.698;2023-06-22T12:46:54;12.10;;;9.80;;
1569;SDS011;778;50.120;8.698;2023-06-22T12:49:22;10.10;;;9.30;;
1569;SDS011;778;50.120;8.698;2023-06-22T12:51:51;9.67;;;8.87;;
1569;SDS011;778;50.120;8.698;2023-06-22T12:54:20;11.60;;;9.67;;
1569;SDS011;778;50.120;8.698;2023-06-22T12:56:50;11.17;;;10.10;;
1569;SDS011;778;50.120;8.698;2023-06-22T12:59:21;14.10;;;9.70;;
1569;SDS011;778;50.120;8.698;2023-06-22T13:01:50;12.40;;;10.67;;
1569;SDS011;778;50.120;8.698;2023-06-22T13:04:19;12.63;;;11.13;;
1569;SDS011;778;50.120;8.698;2023-06-22T13:06:48;11.73;;;10.30;;
1569;SDS011;778;50.120;8.698;2023-06-22T13:09:18;16.50;;;12.77;;
1569;SDS011;778;50.120;8.698;2023-06-22T13:11:47;17.13;;;12.80;;
1569;SDS011;778;50.120;8.698;2023-06-22T13:14:17;15.87;;;12.67;;
1569;SDS011;778;50.120;8.698;2023-06-22T13:16:46;17.50;;;12.93;;
1569;SDS011;778;50.120;8.698;2023-06-22T13:19:15;20.40;;;14.07;;
1569;SDS011;778;50.120;8.698;2023-06-22T13:21:44;19.60;;;13.30;;
1569;SDS011;778;50.120;8.698;2023-06-22T13:24:13;14.10;;;12.63;;
1569;SDS011;778;50.120;8.698;2023-06-22T13:26:42;15.93;;;12.40;;
1569;SDS011;778;50.120;8.698;2023-06-22T13:29:11;15.23;;;11.87;;
1569;SDS011;778;50.120;8.698;2023-06-22T13:31:41;12.60;;;10.50;;
1569;SDS011;778;50.120;8.698;2023-06-22T13:34:10;12.30;;;11.07;;
1569;SDS011;778;50.120;8.698;2023-06-22T13:36:39;14.00;;;10.33;;
1569;SDS011;778;50.120;8.698;2023-06-22T13:39:07;12.67;;;10.93;;
1569;SDS011;778;50.120;8.698;2023-06-22T13:41:36;13.43;;;12.07;;
1569;SDS011;778;50.120;8.698;2023-06-22T13:44:05;13.33;;;12.03;;
1569;SDS011;778;50.120;8.698;2023-06-22T13:46:34;12.33;;;10.90;;
1569;SDS011;778;50.120;8.698;2023-06-22T13:49:04;11.63;;;10.23;;
1569;SDS011;778;50.120;8.698;2023-06-22T13:51:33;12.13;;;10.93;;
1569;SDS011;778;50.120;8.698;2023-06-22T13:54:02;14.27;;;10.40;;
1569;SDS011;778;50.120;8.698;2023-06-22T13:56:37;12.00;;;10.80;;
1569;SDS011;778;50.120;8.698;2023-06-22T13:59:06;11.67;;;10.57;;
1569;SDS011;778;50.120;8.698;2023-06-22T14:01:36;12.30;;;11.00;;
1569;SDS011;778;50.120;8.698;2023-06-22T14:04:08;11.47;;;10.33;;
1569;SDS011;778;50.120;8.698;2023-06-22T14:06:37;10.97;;;9.53;;
1569;SDS011;778;50.120;8.698;2023-06-22T14:09:06;10.50;;;9.60;;
1569;SDS011;778;50.120;8.698;2023-06-22T14:11:35;13.80;;;10.07;;
1569;SDS011;778;50.120;8.698;2023-06-22T14:14:05;14.47;;;9.80;;
1569;SDS011;778;50.120;8.698;2023-06-22T14:16:33;14.60;;;10.40;;
1569;SDS011;778;50.120;8.698;2023-06-22T14:19:02;12.00;;;9.80;;
1569;SDS011;778;50.120;8.698;2023-06-22T14:21:32;11.57;;;9.60;;
1569;SDS011;778;50.120;8.698;2023-06-22T14:24:01;10.20;;;9.17;;
1569;SDS011;778;50.120;8.698;2023-06-22T14:26:30;9.80;;;8.90;;
1569;SDS011;778;50.120;8.698;2023-06-22T14:28:59;10.10;;;9.10;;
1569;SDS011;778;50.120;8.698;2023-06-22T14:31:27;10.57;;;9.20;;
1569;SDS011;778;50.120;8.698;2023-06-22T14:33:58;12.60;;;9.90;;
1569;SDS011;778;50.120;8.698;2023-06-22T14:36:27;10.97;;;9.53;;
1569;SDS011;778;50.120;8.698;2023-06-22T14:38:57;11.13;;;10.00;;
1569;SDS011;778;50.120;8.698;2023-06-22T14:41:26;11.70;;;9.13;;
1569;SDS011;778;50.120;8.698;2023-06-22T14:43:55;14.60;;;9.10;;
1569;SDS011;778;50.120;8.698;2023-06-22T14:46:23;9.63;;;8.80;;
1569;SDS011;778;50.120;8.698;2023-06-22T14:48:52;7.93;;;7.23;;
1569;SDS011;778;50.120;8.698;2023-06-22T14:51:21;12.30;;;7.63;;
1569;SDS011;778;50.120;8.698;2023-06-22T14:53:50;17.43;;;8.03;;
1569;SDS011;778;50.120;8.698;2023-06-22T14:56:20;10.40;;;8.10;;
1569;SDS011;778;50.120;8.698;2023-06-22T14:58:49;11.27;;;7.70;;
1569;SDS011;778;50.120;8.698;2023-06-22T15:01:18;8.17;;;6.37;;
1569;SDS011;778;50.120;8.698;2023-06-22T15:03:47;12.33;;;6.00;;
1569;SDS011;778;50.120;8.698;2023-06-22T15:06:16;12.00;;;7.20;;
1569;SDS011;778;50.120;8.698;2023-06-22T15:08:45;11.60;;;6.53;;
1569;SDS011;778;50.120;8.698;2023-06-22T15:11:14;8.27;;;7.10;;
1569;SDS011;778;50.120;8.698;2023-06-22T15:13:44;9.53;;;7.57;;
1569;SDS011;778;50.120;8.698;2023-06-22T15:16:13;8.07;;;7.00;;
1569;SDS011;778;50.120;8.698;2023-06-22T15:18:43;10.03;;;6.83;;
1569;SDS011;778;50.120;8.698;2023-06-22T15:21:12;8.50;;;6.20;;
1569;SDS011;778;50.120;8.698;2023-06-22T15:23:41;12.50;;;6.73;;
1569;SDS011;778;50.120;8.698;2023-06-22T15:26:09;8.97;;;6.60;;